createdAt,value
2019-02-12T00:03:30.686Z,1.60
2019-02-12T00:08:34.066Z,1.50
2019-02-12T00:13:37.450Z,1.50
2019-02-12T00:18:40.819Z,1.50
2019-02-12T00:23:44.212Z,1.40
2019-02-12T00:28:47.599Z,1.40
2019-02-12T00:33:50.979Z,1.40
2019-02-12T00:38:54.371Z,1.30
2019-02-12T00:43:57.755Z,1.30
2019-02-12T00:49:01.151Z,1.30
2019-02-12T00:54:04.528Z,1.20
2019-02-12T00:59:07.911Z,1.20
2019-02-12T01:04:11.362Z,1.20
2019-02-12T01:09:14.756Z,1.20
2019-02-12T01:14:18.134Z,1.20
2019-02-12T01:19:21.519Z,1.20
2019-02-12T01:24:24.896Z,1.20
2019-02-12T01:29:28.284Z,1.20
2019-02-12T01:34:31.684Z,1.30
2019-02-12T01:39:35.067Z,1.30
2019-02-12T01:44:38.499Z,1.30
2019-02-12T01:49:41.916Z,1.30
2019-02-12T01:54:45.296Z,1.30
2019-02-12T01:59:48.707Z,1.30
2019-02-12T02:04:52.127Z,1.30
2019-02-12T02:09:55.582Z,1.40
2019-02-12T02:14:58.976Z,1.40
2019-02-12T02:20:02.495Z,1.40
2019-02-12T02:25:08.411Z,1.40
2019-02-12T02:30:13.955Z,1.40
2019-02-12T02:35:17.315Z,1.40
2019-02-12T02:40:20.736Z,1.40
2019-02-12T02:45:24.148Z,1.40
2019-02-12T02:50:27.537Z,1.40
2019-02-12T02:55:30.923Z,1.50
2019-02-12T03:00:34.319Z,1.50
2019-02-12T03:05:37.700Z,1.50
2019-02-12T03:10:41.104Z,1.50
2019-02-12T03:15:44.491Z,1.50
2019-02-12T03:20:47.889Z,1.50
2019-02-12T03:25:51.275Z,1.50
2019-02-12T03:30:54.673Z,1.50
2019-02-12T03:35:58.119Z,1.50
2019-02-12T03:41:01.504Z,1.50
2019-02-12T03:46:04.886Z,1.50
2019-02-12T03:51:08.272Z,1.50
2019-02-12T03:56:11.651Z,1.50
2019-02-12T04:01:15.108Z,1.50
2019-02-12T04:06:18.483Z,1.50
2019-02-12T04:11:21.875Z,1.50
2019-02-12T04:16:25.261Z,1.50
2019-02-12T04:21:28.651Z,1.50
2019-02-12T04:26:32.035Z,1.50
2019-02-12T04:31:35.426Z,1.50
2019-02-12T04:36:38.827Z,1.50
2019-02-12T04:41:42.201Z,1.50
2019-02-12T04:46:45.588Z,1.50
2019-02-12T04:51:48.975Z,1.50
2019-02-12T04:56:52.352Z,1.50
2019-02-12T05:01:55.755Z,1.50
2019-02-12T05:06:59.127Z,1.50
2019-02-12T05:12:02.524Z,1.50
2019-02-12T05:17:05.961Z,1.50
2019-02-12T05:22:09.367Z,1.50
2019-02-12T05:27:12.769Z,1.50
2019-02-12T05:32:16.155Z,1.50
2019-02-12T05:37:19.558Z,1.50
2019-02-12T05:42:22.927Z,1.50
2019-02-12T05:47:26.319Z,1.50
2019-02-12T05:52:29.695Z,1.50
2019-02-12T05:57:33.081Z,1.50
2019-02-12T06:02:36.470Z,1.50
2019-02-12T06:07:39.848Z,1.50
2019-02-12T06:12:43.224Z,1.50
2019-02-12T06:17:46.604Z,1.50
2019-02-12T06:22:50.065Z,1.50
2019-02-12T06:27:53.456Z,1.50
2019-02-12T06:32:56.839Z,1.50
2019-02-12T06:38:00.227Z,1.50
2019-02-12T06:43:03.613Z,1.50
2019-02-12T06:48:06.995Z,1.50
2019-02-12T06:53:12.486Z,1.40
2019-02-12T06:58:15.491Z,1.40
2019-02-12T07:03:21.013Z,1.40
2019-02-12T07:08:51.226Z,1.40
2019-02-12T07:14:32.351Z,1.40
2019-02-12T07:20:01.359Z,1.40
2019-02-12T07:25:13.025Z,1.40
2019-02-12T07:30:25.271Z,1.40
2019-02-12T07:35:43.682Z,1.40
2019-02-12T07:41:06.186Z,1.40
2019-02-12T07:46:18.059Z,1.40
2019-02-12T07:51:46.808Z,1.40
2019-02-12T07:57:12.559Z,1.40
2019-02-12T08:02:41.560Z,1.50
2019-02-12T08:07:48.017Z,1.50
2019-02-12T08:13:12.523Z,1.50
2019-02-12T08:18:25.018Z,1.50
2019-02-12T08:23:52.242Z,1.60
2019-02-12T08:29:15.388Z,1.60
2019-02-12T08:34:27.729Z,1.60
2019-02-12T08:39:42.979Z,1.60
2019-02-12T08:44:55.043Z,1.60
2019-02-12T08:50:13.423Z,1.70
2019-02-12T08:55:36.893Z,1.70
2019-02-12T09:00:52.329Z,1.90
2019-02-12T09:06:13.799Z,2.00
2019-02-12T09:11:25.837Z,2.10
2019-02-12T09:16:43.658Z,2.20
2019-02-12T09:21:58.731Z,2.20
2019-02-12T09:27:05.184Z,2.30
2019-02-12T09:32:29.264Z,2.40
2019-02-12T09:37:53.616Z,2.50
2019-02-12T09:43:16.362Z,2.60
2019-02-12T09:48:25.842Z,2.70
2019-02-12T09:53:50.035Z,2.70
2019-02-12T09:59:11.305Z,2.80
2019-02-12T10:04:26.440Z,2.90
2019-02-12T10:09:35.795Z,3.00
2019-02-12T10:14:57.293Z,3.10
2019-02-12T10:20:03.762Z,3.20
2019-02-12T10:25:10.268Z,3.30
2019-02-12T10:30:34.470Z,3.30
2019-02-12T10:35:37.840Z,3.40
2019-02-12T10:40:41.240Z,3.50
2019-02-12T10:45:44.619Z,3.60
2019-02-12T10:50:48.004Z,3.60
2019-02-12T10:55:51.406Z,3.70
2019-02-12T11:00:54.788Z,3.80
2019-02-12T11:05:58.187Z,3.80
2019-02-12T11:11:01.547Z,3.80
2019-02-12T11:16:04.927Z,3.90
2019-02-12T11:21:11.941Z,3.90
2019-02-12T11:26:13.400Z,4.00
2019-02-12T11:31:16.789Z,4.00
2019-02-12T11:36:20.156Z,4.00
2019-02-12T11:41:23.532Z,4.10
2019-02-12T11:46:26.908Z,4.10
2019-02-12T11:51:30.286Z,4.10
2019-02-12T11:56:33.679Z,4.10
2019-02-12T12:01:37.055Z,4.20
2019-02-12T12:06:40.436Z,4.20
2019-02-12T12:11:43.819Z,4.30
2019-02-12T12:16:47.215Z,4.30
2019-02-12T12:21:50.672Z,4.30
2019-02-12T12:26:54.047Z,4.30
2019-02-12T12:31:57.428Z,4.30
2019-02-12T12:37:00.825Z,4.30
2019-02-12T12:42:04.206Z,4.30
2019-02-12T12:47:07.583Z,4.40
2019-02-12T12:52:10.980Z,4.40
2019-02-12T12:57:14.435Z,4.30
2019-02-12T13:02:17.815Z,4.30
2019-02-12T13:07:21.190Z,4.30
2019-02-12T13:12:24.577Z,4.30
2019-02-12T13:17:27.955Z,4.30
2019-02-12T13:22:31.337Z,4.30
2019-02-12T13:27:34.714Z,4.40
2019-02-12T13:32:38.091Z,4.50
2019-02-12T13:37:41.468Z,4.50
2019-02-12T13:42:44.862Z,4.50
2019-02-12T13:47:48.231Z,4.50
2019-02-12T13:52:51.607Z,4.50
2019-02-12T13:57:54.978Z,4.50
2019-02-12T14:02:58.358Z,4.50
2019-02-12T14:08:01.881Z,4.50
2019-02-12T14:13:05.255Z,4.50
2019-02-12T14:18:08.631Z,4.50
2019-02-12T14:23:12.015Z,4.50
2019-02-12T14:28:15.404Z,4.50
2019-02-12T14:33:18.791Z,4.50
2019-02-12T14:38:22.175Z,4.50
2019-02-12T14:43:25.559Z,4.40
2019-02-12T14:48:28.947Z,4.40
2019-02-12T14:53:32.332Z,4.40
2019-02-12T14:58:35.711Z,4.40
2019-02-12T15:03:39.163Z,4.40
2019-02-12T15:08:42.550Z,4.40
2019-02-12T15:13:45.936Z,4.30
2019-02-12T15:18:50.180Z,4.30
2019-02-12T15:23:53.556Z,4.30
2019-02-12T15:28:56.976Z,4.30
2019-02-12T15:34:00.365Z,4.20
2019-02-12T15:39:04.839Z,4.20
2019-02-12T15:44:08.287Z,4.10
2019-02-12T15:49:11.669Z,4.10
2019-02-12T15:54:15.055Z,4.00
2019-02-12T15:59:18.430Z,4.00
2019-02-12T16:04:25.676Z,3.90
2019-02-12T16:09:26.903Z,3.90
2019-02-12T16:14:30.280Z,3.90
2019-02-12T16:19:33.655Z,3.80
2019-02-12T16:24:37.035Z,3.70
2019-02-12T16:29:40.612Z,3.70
2019-02-12T16:34:43.989Z,3.70
2019-02-12T16:39:47.390Z,3.60
2019-02-12T16:44:50.779Z,3.60
2019-02-12T16:49:54.150Z,3.50
2019-02-12T16:54:57.545Z,3.50
2019-02-12T17:00:00.923Z,3.50
2019-02-12T17:05:06.140Z,3.40
2019-02-12T17:10:10.376Z,3.40
2019-02-12T17:15:14.525Z,3.30
2019-02-12T17:20:23.214Z,3.30
2019-02-12T17:25:26.587Z,3.20
2019-02-12T17:30:29.976Z,3.20
2019-02-12T17:35:33.373Z,3.20
2019-02-12T17:40:36.785Z,3.20
2019-02-12T17:45:40.213Z,3.10
2019-02-12T17:50:43.609Z,3.10
2019-02-12T17:55:46.975Z,3.10
2019-02-12T18:00:50.400Z,3.10
2019-02-12T18:05:53.757Z,3.00
2019-02-12T18:10:57.144Z,3.00
2019-02-12T18:16:00.534Z,3.00
2019-02-12T18:21:03.919Z,3.00
2019-02-12T18:26:07.301Z,2.90
2019-02-12T18:31:10.687Z,2.90
2019-02-12T18:36:14.067Z,2.90
2019-02-12T18:41:17.451Z,2.90
2019-02-12T18:46:20.839Z,2.90
2019-02-12T18:51:24.224Z,2.90
2019-02-12T18:56:27.603Z,2.80
2019-02-12T19:01:31.008Z,2.80
2019-02-12T19:06:34.370Z,2.80
2019-02-12T19:11:48.419Z,2.80
2019-02-12T19:16:42.873Z,2.80
2019-02-12T19:21:46.251Z,2.80
2019-02-12T19:26:50.112Z,2.80
2019-02-12T19:31:59.121Z,2.70
2019-02-12T19:41:56.375Z,2.70
2019-02-12T19:46:59.762Z,2.70
2019-02-12T19:52:03.143Z,2.70
2019-02-12T19:57:06.544Z,2.70
2019-02-12T20:02:09.935Z,2.60
2019-02-12T20:07:13.324Z,2.60
2019-02-12T20:12:16.694Z,2.60
2019-02-12T20:17:20.076Z,2.60
2019-02-12T20:22:23.456Z,2.50
2019-02-12T20:27:26.840Z,2.50
2019-02-12T20:32:30.227Z,2.50
2019-02-12T20:37:33.603Z,2.50
2019-02-12T20:42:37.007Z,2.50
2019-02-12T20:47:40.391Z,2.40
2019-02-12T20:52:43.773Z,2.40
2019-02-12T20:57:47.151Z,2.40
2019-02-12T21:02:50.529Z,2.40
2019-02-12T21:07:53.910Z,2.40
2019-02-12T21:12:57.372Z,2.40
2019-02-12T21:18:00.747Z,2.40
2019-02-12T21:23:04.147Z,2.40
2019-02-12T21:28:07.535Z,2.40
2019-02-12T21:33:10.921Z,2.40
2019-02-12T21:38:15.584Z,2.40
2019-02-12T21:43:18.975Z,2.40
2019-02-12T21:48:22.364Z,2.40
2019-02-12T21:53:25.751Z,2.40
2019-02-12T21:58:29.140Z,2.40
2019-02-12T22:03:32.515Z,2.40
2019-02-12T22:08:35.895Z,2.40
2019-02-12T22:13:39.275Z,2.40
2019-02-12T22:18:42.656Z,2.40
2019-02-12T22:23:46.035Z,2.40
2019-02-12T22:28:49.416Z,2.30
2019-02-12T22:33:52.795Z,2.40
2019-02-12T22:38:56.206Z,2.40
2019-02-12T22:43:59.592Z,2.30
2019-02-12T22:49:02.971Z,2.30
2019-02-12T22:54:06.369Z,2.30
2019-02-12T22:59:09.748Z,2.30
2019-02-12T23:04:13.123Z,2.30
2019-02-12T23:09:17.171Z,2.20
2019-02-12T23:14:20.555Z,2.20
2019-02-12T23:19:23.934Z,2.20
2019-02-12T23:24:27.303Z,2.20
2019-02-12T23:29:30.692Z,2.20
2019-02-12T23:34:34.077Z,2.10
2019-02-12T23:39:37.451Z,2.10
2019-02-12T23:44:40.840Z,2.10
2019-02-12T23:49:44.212Z,2.10
2019-02-12T23:54:47.593Z,2.10
2019-02-12T23:59:50.970Z,2.00
